Time;durP1;ratioP1;P1;durP2;ratioP2;P2;SDS_P1;SDS_P2;PMS_P1;PMS_P2;Temp;Humidity;BMP_temperature;BMP_pressure;BME280_temperature;BME280_humidity;BME280_pressure;Samples;Min_cycle;Max_cycle;Signal;HPM_P1;HPM_P2
2022/05/12 00:02:02;;;;;;;6.65;1.70;;;11.30;99.90;;;;;;5060274;28;20040;-61
2022/05/12 00:04:29;;;;;;;7.68;1.98;;;11.20;99.90;;;;;;5058116;28;20054;-61
2022/05/12 00:06:55;;;;;;;8.57;2.25;;;11.20;99.90;;;;;;5078173;28;20048;-61
2022/05/12 00:09:22;;;;;;;6.35;1.60;;;11.20;99.90;;;;;;5095337;28;20044;-61
2022/05/12 00:11:49;;;;;;;6.80;2.30;;;11.10;99.90;;;;;;5077719;28;20048;-61
2022/05/12 00:14:15;;;;;;;6.47;2.20;;;11.10;99.90;;;;;;5078004;28;20044;-60
2022/05/12 00:16:41;;;;;;;5.15;1.65;;;11.00;99.90;;;;;;5081038;28;20051;-60
2022/05/12 00:19:08;;;;;;;4.95;1.50;;;11.00;99.90;;;;;;5076899;28;20047;-61
2022/05/12 00:21:34;;;;;;;4.20;1.63;;;11.00;99.90;;;;;;5078112;28;20056;-60
2022/05/12 00:24:00;;;;;;;10.25;1.98;;;11.00;99.90;;;;;;5072400;28;20044;-61
2022/05/12 00:26:33;;;;;;;7.57;1.90;;;10.90;99.90;;;;;;5089279;28;20120;-61
2022/05/12 00:29:00;;;;;;;4.18;1.58;;;10.90;99.90;;;;;;5062695;28;20788;-61
2022/05/12 00:31:29;;;;;;;5.45;1.77;;;10.80;99.90;;;;;;5082537;28;20075;-52
2022/05/12 00:33:55;;;;;;;4.88;1.27;;;10.80;99.90;;;;;;5077433;28;20453;-53
2022/05/12 00:36:22;;;;;;;8.90;2.40;;;10.80;99.90;;;;;;5074750;28;20040;-59
2022/05/12 00:38:48;;;;;;;4.43;1.30;;;10.80;99.90;;;;;;5073673;28;20052;-51
2022/05/12 00:41:14;;;;;;;4.80;1.65;;;10.70;99.90;;;;;;5092975;28;20048;-52
2022/05/12 00:43:48;;;;;;;10.18;2.10;;;10.70;99.90;;;;;;5077305;28;20511;-49
2022/05/12 00:46:24;;;;;;;6.47;2.00;;;10.70;99.90;;;;;;5078285;28;20047;-51
2022/05/12 00:48:52;;;;;;;4.78;1.70;;;10.60;99.90;;;;;;5075113;28;20122;-52
2022/05/12 00:51:23;;;;;;;4.70;1.85;;;10.60;99.90;;;;;;5091196;28;20048;-60
2022/05/12 00:53:52;;;;;;;5.82;1.58;;;10.60;99.90;;;;;;5064801;28;20585;-51
2022/05/12 00:56:22;;;;;;;7.38;1.60;;;10.60;99.90;;;;;;5083547;28;20534;-51
2022/05/12 00:58:55;;;;;;;4.43;1.85;;;10.50;99.90;;;;;;5084849;28;20051;-52
2022/05/12 01:01:21;;;;;;;6.15;1.73;;;10.50;99.90;;;;;;5083679;28;20044;-53
2022/05/12 01:03:48;;;;;;;8.50;2.10;;;10.40;99.90;;;;;;5061656;28;20051;-52
2022/05/12 01:06:14;;;;;;;6.20;1.95;;;10.40;99.90;;;;;;5063888;28;20589;-52
2022/05/12 01:08:41;;;;;;;7.45;1.73;;;10.40;99.90;;;;;;5081395;28;20050;-50
2022/05/12 01:11:15;;;;;;;4.82;2.03;;;10.30;99.90;;;;;;5083622;28;20056;-52
2022/05/12 01:13:46;;;;;;;5.47;1.95;;;10.30;99.90;;;;;;5081606;28;20483;-50
2022/05/12 01:16:39;;;;;;;4.28;2.13;;;10.30;99.90;;;;;;5064493;28;20526;-54
2022/05/12 01:19:06;;;;;;;4.68;1.95;;;10.20;99.90;;;;;;5082945;28;20052;-49
2022/05/12 01:21:33;;;;;;;6.80;1.70;;;10.30;99.90;;;;;;5081719;28;20040;-52
2022/05/12 01:24:00;;;;;;;6.15;1.83;;;10.20;99.90;;;;;;5073015;28;20180;-51
2022/05/12 01:26:28;;;;;;;6.68;1.90;;;10.20;99.90;;;;;;5080779;28;20128;-49
2022/05/12 01:28:54;;;;;;;4.30;1.67;;;10.10;99.90;;;;;;5081683;28;20036;-50
2022/05/12 01:31:22;;;;;;;6.63;2.15;;;10.10;99.90;;;;;;5080862;28;20044;-59
2022/05/12 01:33:48;;;;;;;7.65;2.17;;;10.10;99.90;;;;;;5080984;28;20399;-60
2022/05/12 01:36:14;;;;;;;4.70;1.80;;;10.10;99.90;;;;;;5080086;28;20474;-59
2022/05/12 01:38:40;;;;;;;5.80;1.83;;;10.10;99.90;;;;;;5079357;28;20467;-59
2022/05/12 01:41:06;;;;;;;4.68;1.80;;;10.00;99.90;;;;;;5077514;28;20044;-59
2022/05/12 01:43:32;;;;;;;5.47;2.03;;;10.00;99.90;;;;;;5096202;28;20689;-59
2022/05/12 01:46:00;;;;;;;6.53;1.50;;;10.00;99.90;;;;;;5081580;28;20511;-59
2022/05/12 01:48:26;;;;;;;5.30;1.75;;;10.00;99.90;;;;;;5077395;28;20522;-59
2022/05/12 01:50:52;;;;;;;4.18;1.60;;;9.90;99.90;;;;;;5081095;28;20083;-47
2022/05/12 01:53:19;;;;;;;4.97;1.70;;;9.90;99.90;;;;;;5078682;28;20047;-51
2022/05/12 01:55:48;;;;;;;3.25;1.63;;;9.80;99.90;;;;;;5079218;28;20047;-48
2022/05/12 01:58:16;;;;;;;5.90;1.60;;;9.80;99.90;;;;;;5080608;28;20043;-49
2022/05/12 02:00:42;;;;;;;6.45;1.63;;;9.70;99.90;;;;;;5080808;28;20126;-51
2022/05/12 02:03:09;;;;;;;5.85;1.65;;;9.70;99.90;;;;;;5060380;28;20040;-49
2022/05/12 02:05:37;;;;;;;3.40;1.42;;;9.60;99.90;;;;;;5082543;28;20741;-52
2022/05/12 02:08:05;;;;;;;3.60;1.45;;;9.60;99.90;;;;;;5099426;28;20047;-53
2022/05/12 02:10:38;;;;;;;4.18;1.42;;;9.50;99.90;;;;;;5080403;28;20494;-48
2022/05/12 02:13:09;;;;;;;7.03;2.08;;;9.50;99.90;;;;;;5090851;28;20040;-48
2022/05/12 02:15:36;;;;;;;6.63;2.10;;;9.40;99.90;;;;;;5077263;28;20056;-49
2022/05/12 02:18:03;;;;;;;6.03;2.03;;;9.40;99.90;;;;;;5074106;28;20048;-59
2022/05/12 02:20:29;;;;;;;4.63;1.95;;;9.40;99.90;;;;;;5073339;28;20052;-59
2022/05/12 02:22:55;;;;;;;7.00;2.50;;;9.30;99.90;;;;;;5095338;28;20495;-59
2022/05/12 02:25:22;;;;;;;5.80;2.55;;;9.30;99.90;;;;;;5080495;28;20414;-59
2022/05/12 02:27:50;;;;;;;7.35;2.65;;;9.30;99.90;;;;;;5080439;28;20521;-60
2022/05/12 02:30:25;;;;;;;8.43;2.95;;;9.30;99.90;;;;;;5078559;28;20080;-59
2022/05/12 02:32:52;;;;;;;6.13;2.63;;;9.30;99.90;;;;;;5083479;28;20055;-59
2022/05/12 02:35:19;;;;;;;10.38;2.90;;;9.30;99.90;;;;;;5079062;28;20506;-59
2022/05/12 02:37:45;;;;;;;10.50;3.38;;;9.20;99.90;;;;;;5081906;28;20102;-59
2022/05/12 02:40:14;;;;;;;8.40;2.75;;;9.20;99.90;;;;;;5078344;28;20052;-59
2022/05/12 02:42:40;;;;;;;8.25;2.85;;;9.20;99.90;;;;;;5081523;28;20117;-59
2022/05/12 02:45:07;;;;;;;7.22;2.45;;;9.20;99.90;;;;;;5080792;28;20097;-59
2022/05/12 02:47:33;;;;;;;6.85;2.55;;;9.20;99.90;;;;;;5080772;28;20071;-61
2022/05/12 02:49:59;;;;;;;6.63;2.40;;;9.20;99.90;;;;;;5078833;28;20399;-58
2022/05/12 02:52:26;;;;;;;8.75;2.90;;;9.20;99.90;;;;;;5081978;28;20051;-59
2022/05/12 02:54:52;;;;;;;5.25;2.28;;;9.20;99.90;;;;;;5073287;28;20032;-58
2022/05/12 02:57:18;;;;;;;6.80;3.40;;;9.20;99.90;;;;;;5078795;28;20054;-59
2022/05/12 02:59:44;;;;;;;5.25;2.75;;;9.10;99.90;;;;;;5081128;28;20055;-59
2022/05/12 03:02:10;;;;;;;5.63;2.85;;;9.10;99.90;;;;;;5080769;28;20047;-59
2022/05/12 03:04:36;;;;;;;8.10;3.05;;;9.10;99.90;;;;;;5076363;28;20056;-59
2022/05/12 03:07:02;;;;;;;5.60;2.75;;;9.10;99.90;;;;;;5076149;28;20130;-59
2022/05/12 03:09:29;;;;;;;11.63;3.17;;;9.10;99.90;;;;;;5077658;28;20088;-58
2022/05/12 03:11:56;;;;;;;7.53;3.40;;;9.10;99.90;;;;;;5081778;28;20051;-60
2022/05/12 03:14:22;;;;;;;8.13;3.33;;;9.00;99.90;;;;;;5063997;28;20085;-59
2022/05/12 03:16:52;;;;;;;6.55;3.20;;;9.00;99.90;;;;;;5077528;28;20097;-59
2022/05/12 03:19:21;;;;;;;11.95;3.65;;;8.90;99.90;;;;;;5060223;28;20052;-59
2022/05/12 03:21:47;;;;;;;7.93;3.55;;;8.90;99.90;;;;;;5079939;28;20040;-47
2022/05/12 03:24:18;;;;;;;8.30;3.45;;;8.90;99.90;;;;;;5078122;28;20674;-49
2022/05/12 03:26:45;;;;;;;6.80;3.73;;;8.90;99.90;;;;;;5075435;28;20086;-59
2022/05/12 03:29:11;;;;;;;10.57;4.50;;;8.80;99.90;;;;;;5079350;28;20043;-59
2022/05/12 03:31:38;;;;;;;6.30;4.10;;;8.80;99.90;;;;;;5081600;28;20121;-46
2022/05/12 03:34:06;;;;;;;8.23;3.92;;;8.80;99.90;;;;;;5076046;28;20127;-50
2022/05/12 03:36:35;;;;;;;9.00;3.60;;;8.80;99.90;;;;;;5081788;28;20052;-59
2022/05/12 03:39:05;;;;;;;7.97;3.90;;;8.80;99.90;;;;;;5092613;28;20056;-48
2022/05/12 03:41:32;;;;;;;10.27;4.55;;;8.80;99.90;;;;;;5082318;28;20040;-59
2022/05/12 03:46:56;;;;;;;9.07;4.43;;;8.80;99.90;;;;;;5041994;28;20523;-52
2022/05/12 03:49:22;;;;;;;10.85;4.18;;;8.80;99.90;;;;;;5075191;28;20036;-49
2022/05/12 03:51:48;;;;;;;10.65;4.68;;;8.80;99.90;;;;;;5081516;28;20871;-59
2022/05/12 03:54:14;;;;;;;10.77;4.75;;;8.80;99.90;;;;;;5078370;28;20093;-51
2022/05/12 03:56:42;;;;;;;7.38;4.65;;;8.80;99.90;;;;;;5078792;28;20511;-59
2022/05/12 03:59:08;;;;;;;14.38;5.45;;;8.80;99.90;;;;;;5079964;28;20570;-59
2022/05/12 04:01:35;;;;;;;16.92;5.28;;;8.80;99.90;;;;;;5079887;28;20059;-50
2022/05/12 04:04:01;;;;;;;13.25;4.90;;;8.80;99.90;;;;;;5077012;28;20055;-49
2022/05/12 04:06:27;;;;;;;11.93;4.30;;;8.90;99.90;;;;;;5080682;28;20493;-59
2022/05/12 04:08:53;;;;;;;9.05;4.53;;;8.90;99.90;;;;;;5075802;28;20048;-59
2022/05/12 04:11:19;;;;;;;14.27;5.30;;;8.90;99.90;;;;;;5082616;28;20051;-49
2022/05/12 04:13:45;;;;;;;15.68;5.75;;;8.90;99.90;;;;;;5081746;28;20047;-59
2022/05/12 04:16:11;;;;;;;10.45;4.85;;;9.00;99.90;;;;;;5077574;28;20565;-47
2022/05/12 04:18:38;;;;;;;9.55;5.35;;;9.00;99.90;;;;;;5075391;28;20060;-58
2022/05/12 04:21:04;;;;;;;15.02;5.00;;;9.00;99.90;;;;;;5044445;28;20684;-47
2022/05/12 04:23:30;;;;;;;14.95;5.32;;;9.10;99.90;;;;;;5075416;28;20040;-59
2022/05/12 04:25:56;;;;;;;13.23;5.47;;;9.10;99.90;;;;;;5069289;28;20063;-59
2022/05/12 04:28:22;;;;;;;15.32;5.40;;;9.20;99.90;;;;;;5081070;28;20054;-59
2022/05/12 04:30:48;;;;;;;14.40;4.95;;;9.20;99.90;;;;;;5086378;28;20044;-58
2022/05/12 04:35:59;;;;;;;14.32;5.50;;;9.30;99.90;;;;;;5077213;28;20053;-59
2022/05/12 04:38:26;;;;;;;12.85;4.90;;;9.30;99.90;;;;;;5073071;28;20057;-59
2022/05/12 04:40:52;;;;;;;14.25;5.78;;;9.40;99.90;;;;;;5077838;28;20556;-59
2022/05/12 04:43:18;;;;;;;12.65;6.55;;;9.50;99.90;;;;;;5081227;28;20051;-59
2022/05/12 04:45:44;;;;;;;12.20;5.82;;;9.60;99.90;;;;;;5086783;28;20052;-59
2022/05/12 04:48:10;;;;;;;14.80;6.18;;;9.60;99.90;;;;;;5076815;28;20044;-59
2022/05/12 04:50:41;;;;;;;13.57;6.72;;;9.70;99.90;;;;;;5082306;28;20120;-47
2022/05/12 04:53:08;;;;;;;14.93;6.85;;;9.80;99.90;;;;;;5083541;28;20048;-59
2022/05/12 04:55:35;;;;;;;13.23;6.20;;;9.90;99.90;;;;;;5094292;28;20104;-51
2022/05/12 04:58:02;;;;;;;13.15;6.55;;;9.90;99.90;;;;;;5081181;28;20055;-51
2022/05/12 05:00:40;;;;;;;14.30;6.05;;;10.00;99.90;;;;;;5073747;28;20048;-58
2022/05/12 05:03:08;;;;;;;10.23;5.80;;;10.10;99.90;;;;;;5083962;28;20535;-59
2022/05/12 05:05:35;;;;;;;13.43;6.32;;;10.40;99.90;;;;;;5075836;28;20553;-49
2022/05/12 05:08:01;;;;;;;12.65;5.50;;;10.80;99.90;;;;;;5069911;28;20048;-50
2022/05/12 05:10:28;;;;;;;11.65;5.15;;;11.10;99.90;;;;;;5066833;28;20052;-50
2022/05/12 05:12:54;;;;;;;10.82;5.65;;;11.40;99.90;;;;;;5082865;28;20054;-60
2022/05/12 05:15:21;;;;;;;9.80;5.25;;;11.60;99.90;;;;;;5074807;28;20094;-53
2022/05/12 05:17:47;;;;;;;10.50;5.38;;;11.70;99.90;;;;;;5061354;28;20140;-60
2022/05/12 05:20:20;;;;;;;8.65;5.80;;;11.70;99.90;;;;;;5087180;28;20044;-51
2022/05/12 05:22:47;;;;;;;15.45;6.28;;;11.50;99.90;;;;;;5075576;28;20056;-58
2022/05/12 05:25:14;;;;;;;11.77;6.80;;;11.30;99.90;;;;;;5080978;28;20058;-58
2022/05/12 05:27:41;;;;;;;14.32;7.00;;;11.30;99.90;;;;;;5083151;28;20062;-50
2022/05/12 05:30:10;;;;;;;14.15;7.53;;;11.30;99.90;;;;;;5078601;28;20527;-50
2022/05/12 05:32:37;;;;;;;12.02;7.80;;;11.50;99.90;;;;;;5076282;28;20185;-58
2022/05/12 05:35:05;;;;;;;16.58;8.25;;;11.60;99.90;;;;;;5079120;28;20079;-48
2022/05/12 05:37:31;;;;;;;13.88;7.32;;;11.90;99.90;;;;;;5088889;28;20086;-58
2022/05/12 05:39:57;;;;;;;14.90;7.63;;;11.90;99.90;;;;;;5069441;28;20086;-61
2022/05/12 05:42:23;;;;;;;13.10;7.72;;;11.90;99.90;;;;;;5071042;28;20048;-58
2022/05/12 05:44:49;;;;;;;11.90;8.02;;;11.90;99.90;;;;;;5068986;28;20044;-47
2022/05/12 05:47:16;;;;;;;10.90;8.40;;;11.90;99.90;;;;;;5084098;28;20112;-58
2022/05/12 05:49:43;;;;;;;16.48;9.00;;;11.80;99.90;;;;;;5069443;28;20086;-58
2022/05/12 05:54:54;;;;;;;16.17;9.25;;;11.70;99.90;;;;;;5071110;28;20044;-51
2022/05/12 05:57:30;;;;;;;15.75;8.48;;;11.70;99.90;;;;;;5035609;28;20048;-58
2022/05/12 05:59:58;;;;;;;12.68;8.52;;;11.70;99.90;;;;;;5082296;28;20546;-57
2022/05/12 06:02:25;;;;;;;15.25;9.23;;;11.80;99.90;;;;;;5068689;28;20048;-58
2022/05/12 06:04:51;;;;;;;13.50;8.98;;;12.10;99.90;;;;;;5069555;28;20043;-58
2022/05/12 06:07:17;;;;;;;11.27;7.10;;;12.40;99.90;;;;;;5047465;28;20125;-58
2022/05/12 06:09:43;;;;;;;11.77;6.68;;;12.70;99.90;;;;;;5065903;28;20076;-51
2022/05/12 06:12:10;;;;;;;13.05;7.72;;;12.80;99.90;;;;;;5084144;28;20106;-50
2022/05/12 06:14:38;;;;;;;11.73;7.10;;;13.00;99.90;;;;;;5065352;28;20564;-52
2022/05/12 06:17:05;;;;;;;11.88;6.70;;;13.10;99.90;;;;;;5067099;28;20040;-59
2022/05/12 06:19:31;;;;;;;11.95;7.25;;;13.30;99.90;;;;;;5062174;28;20511;-59
2022/05/12 06:21:57;;;;;;;10.48;7.28;;;13.40;99.90;;;;;;5080014;28;20685;-58
2022/05/12 06:24:24;;;;;;;9.27;6.45;;;13.40;99.90;;;;;;5071181;28;20045;-59
2022/05/12 06:26:51;;;;;;;15.55;7.18;;;13.60;99.90;;;;;;5081436;28;20048;-59
2022/05/12 06:29:18;;;;;;;12.98;7.38;;;13.80;99.90;;;;;;5075185;28;20488;-59
2022/05/12 06:31:44;;;;;;;9.60;5.88;;;14.00;99.90;;;;;;5082984;28;20059;-60
2022/05/12 06:34:10;;;;;;;12.57;6.45;;;14.10;99.90;;;;;;5074809;28;20172;-59
2022/05/12 06:36:36;;;;;;;14.27;5.88;;;14.20;99.90;;;;;;5082376;28;20048;-59
2022/05/12 06:39:02;;;;;;;12.90;5.82;;;14.30;99.90;;;;;;5064608;28;20060;-59
2022/05/12 06:41:30;;;;;;;9.95;4.80;;;14.40;99.90;;;;;;5063729;28;20052;-59
2022/05/12 06:43:56;;;;;;;10.52;5.35;;;14.40;99.90;;;;;;5066054;28;20427;-59
2022/05/12 06:46:22;;;;;;;9.75;5.60;;;14.40;99.90;;;;;;5093155;28;20070;-59
2022/05/12 06:48:50;;;;;;;11.05;5.28;;;14.70;99.90;;;;;;5076445;28;20063;-59
2022/05/12 06:51:18;;;;;;;8.57;4.53;;;15.00;99.90;;;;;;5091398;28;20062;-58
2022/05/12 06:53:45;;;;;;;9.52;4.65;;;15.10;99.90;;;;;;5078845;28;20060;-58
2022/05/12 06:56:12;;;;;;;8.57;4.38;;;15.40;99.90;;;;;;5083123;28;20056;-58
2022/05/12 06:58:38;;;;;;;10.98;5.20;;;15.60;99.90;;;;;;5081357;28;20052;-58
2022/05/12 07:01:06;;;;;;;9.85;4.35;;;15.70;99.90;;;;;;5064561;28;20130;-59
2022/05/12 07:03:32;;;;;;;8.15;4.10;;;15.90;99.90;;;;;;5053304;28;20041;-58
2022/05/12 07:05:59;;;;;;;10.38;3.70;;;16.10;99.90;;;;;;5081097;28;20157;-60
2022/05/12 07:08:26;;;;;;;9.02;3.03;;;16.30;99.90;;;;;;5070686;28;20463;-61
2022/05/12 07:10:52;;;;;;;7.57;2.55;;;16.40;99.90;;;;;;5064038;28;20393;-60
2022/05/12 07:13:20;;;;;;;8.77;2.95;;;16.70;99.90;;;;;;5081423;28;20147;-60
2022/05/12 07:15:49;;;;;;;10.70;3.50;;;17.00;99.90;;;;;;5065421;28;20047;-60
2022/05/12 07:18:19;;;;;;;8.30;2.80;;;17.40;99.90;;;;;;5065060;28;20135;-60
2022/05/12 07:29:00;;;;;;;8.65;2.45;;;18.00;99.90;;;;;;5077049;28;20772;-61
2022/05/12 07:31:26;;;;;;;7.57;2.58;;;17.80;99.90;;;;;;5099710;28;20531;-59
2022/05/12 07:33:52;;;;;;;4.60;1.92;;;17.90;99.90;;;;;;5089545;28;20055;-59
2022/05/12 07:36:25;;;;;;;8.07;2.80;;;17.90;99.90;;;;;;5072566;28;20051;-60
2022/05/12 07:38:52;;;;;;;6.85;3.03;;;18.10;99.90;;;;;;5085718;28;20068;-59
2022/05/12 07:41:19;;;;;;;8.10;3.33;;;18.40;99.90;;;;;;5079190;28;20048;-59
2022/05/12 07:43:46;;;;;;;6.95;2.55;;;18.30;99.90;;;;;;5075235;28;20122;-59
2022/05/12 07:46:15;;;;;;;8.23;2.28;;;18.20;99.90;;;;;;5095345;28;20047;-60
2022/05/12 07:48:42;;;;;;;8.98;2.13;;;18.50;99.90;;;;;;5076659;28;20109;-60
2022/05/12 07:51:09;;;;;;;7.93;2.47;;;18.70;99.90;;;;;;5081035;28;20749;-53
2022/05/12 07:53:35;;;;;;;7.63;2.70;;;18.80;99.90;;;;;;5073686;28;20043;-51
2022/05/12 07:56:02;;;;;;;7.38;1.90;;;18.90;99.90;;;;;;5082076;28;20051;-51
2022/05/12 07:58:28;;;;;;;6.32;1.80;;;19.10;99.90;;;;;;5080528;28;20044;-51
2022/05/12 08:00:54;;;;;;;4.78;1.60;;;19.00;99.90;;;;;;5049171;28;20063;-51
2022/05/12 08:03:22;;;;;;;7.88;2.20;;;19.10;99.90;;;;;;5098230;28;20044;-49
2022/05/12 08:05:48;;;;;;;8.60;2.22;;;19.20;99.90;;;;;;5080306;28;20056;-49
2022/05/12 08:08:15;;;;;;;5.43;1.60;;;19.40;99.90;;;;;;5082328;28;20055;-52
2022/05/12 08:10:41;;;;;;;6.65;1.90;;;19.70;99.90;;;;;;5067348;28;20044;-51
2022/05/12 08:13:14;;;;;;;8.35;2.05;;;19.60;99.90;;;;;;5080177;28;20495;-50
2022/05/12 08:15:48;;;;;;;6.90;1.70;;;19.30;99.90;;;;;;5067400;28;20052;-52
2022/05/12 08:18:21;;;;;;;7.03;2.28;;;19.50;99.90;;;;;;5078946;28;20124;-51
2022/05/12 08:20:48;;;;;;;5.35;1.80;;;19.40;99.90;;;;;;5080475;28;20075;-51
2022/05/12 08:23:15;;;;;;;6.30;1.40;;;18.90;99.90;;;;;;5087683;28;20044;-48
2022/05/12 08:25:43;;;;;;;9.98;1.98;;;18.80;99.90;;;;;;5090382;28;20051;-48
2022/05/12 08:28:13;;;;;;;6.43;1.88;;;18.90;99.90;;;;;;5093102;28;20048;-50
2022/05/12 08:30:39;;;;;;;8.55;2.40;;;18.80;99.90;;;;;;5094873;28;20058;-48
2022/05/12 08:33:05;;;;;;;7.75;2.30;;;19.00;99.90;;;;;;5082808;28;20495;-48
2022/05/12 08:35:31;;;;;;;8.52;1.98;;;19.30;99.90;;;;;;5072717;28;20063;-52
2022/05/12 08:37:57;;;;;;;5.50;2.13;;;19.50;99.90;;;;;;5068057;28;20747;-51
2022/05/12 08:40:43;;;;;;;5.00;1.45;;;20.00;99.90;;;;;;5079019;28;20057;-51
2022/05/12 08:43:28;;;;;;;7.07;1.52;;;20.40;99.90;;;;;;5063550;28;20052;-52
2022/05/12 08:46:01;;;;;;;6.05;2.00;;;20.40;99.90;;;;;;5062460;28;20575;-59
2022/05/12 08:48:27;;;;;;;5.50;2.05;;;19.90;99.90;;;;;;5083535;28;20497;-59
2022/05/12 08:50:55;;;;;;;5.85;1.77;;;19.60;99.90;;;;;;5072325;28;20080;-59
2022/05/12 08:53:25;;;;;;;6.57;1.85;;;19.60;99.90;;;;;;5087608;28;20099;-58
2022/05/12 08:55:54;;;;;;;5.43;1.67;;;19.30;99.90;;;;;;5063222;28;20060;-58
2022/05/12 08:58:26;;;;;;;4.30;1.40;;;19.70;99.90;;;;;;5065547;28;20076;-59
2022/05/12 09:01:15;;;;;;;;;;;20.10;99.90;;;;;;5051390;28;20407;-59
2022/05/12 09:04:02;;;;;;;4.05;1.70;;;19.50;99.90;;;;;;5081012;28;19959;-58
2022/05/12 09:06:39;;;;;;;5.15;2.15;;;19.50;99.90;;;;;;5081618;28;20223;-59
2022/05/12 09:09:28;;;;;;;4.32;1.33;;;20.00;99.90;;;;;;5061833;28;20048;-58
2022/05/12 09:12:15;;;;;;;7.47;1.70;;;20.30;99.90;;;;;;5078269;28;20060;-58
2022/05/12 09:15:01;;;;;;;6.80;2.60;;;19.60;99.90;;;;;;5098234;28;20063;-59
2022/05/12 09:17:37;;;;;;;4.93;1.52;;;19.80;99.90;;;;;;5077982;28;20862;-58
2022/05/12 09:20:09;;;;;;;6.80;1.90;;;19.70;99.90;;;;;;5082159;28;20039;-58
2022/05/12 09:22:37;;;;;;;6.45;1.98;;;19.40;99.90;;;;;;5082437;28;20549;-58
2022/05/12 09:25:05;;;;;;;8.52;2.08;;;19.40;99.90;;;;;;5099036;28;20044;-58
2022/05/12 09:27:34;;;;;;;5.97;2.13;;;19.90;99.90;;;;;;5085200;28;20044;-52
2022/05/12 09:30:02;;;;;;;7.22;1.63;;;19.70;99.90;;;;;;5073956;28;20621;-50
2022/05/12 09:32:34;;;;;;;3.53;1.10;;;20.10;99.90;;;;;;5080709;28;20540;-52
2022/05/12 09:35:26;;;;;;;5.28;1.85;;;19.60;99.90;;;;;;5078721;28;20059;-53
2022/05/12 09:37:53;;;;;;;6.38;1.80;;;20.20;99.90;;;;;;5088734;28;20048;-51
2022/05/12 09:40:39;;;;;;;4.78;1.70;;;19.90;99.90;;;;;;5075736;28;20809;-53
2022/05/12 09:43:32;;;;;;;6.80;1.98;;;19.90;99.90;;;;;;5081948;28;20487;-58
2022/05/12 09:46:18;;;;;;;5.80;1.65;;;19.50;99.90;;;;;;5083422;28;20040;-48
2022/05/12 09:48:48;;;;;;;6.13;1.90;;;19.30;99.90;;;;;;5080438;28;20056;-49
2022/05/12 09:51:21;;;;;;;4.93;1.65;;;18.70;99.90;;;;;;5071478;28;20095;-51
2022/05/12 09:53:50;;;;;;;4.55;1.45;;;18.50;99.90;;;;;;5081455;28;20044;-50
2022/05/12 09:56:34;;;;;;;6.53;1.40;;;18.50;99.90;;;;;;5074814;28;20055;-52
2022/05/12 09:59:15;;;;;;;4.90;1.50;;;18.40;99.90;;;;;;5083906;28;20146;-58
2022/05/12 10:01:58;;;;;;;5.03;1.55;;;18.30;99.90;;;;;;5099691;28;20705;-58
2022/05/12 10:10:25;;;;;;;8.40;1.75;;;19.80;99.90;;;;;;5069098;28;20056;-58
2022/05/12 10:12:58;;;;;;;5.20;1.70;;;19.90;99.90;;;;;;5064812;28;20116;-59
2022/05/12 10:15:30;;;;;;;3.90;1.20;;;20.60;99.90;;;;;;5093956;28;20105;-59
2022/05/12 10:18:15;;;;;;;5.03;1.55;;;20.70;99.90;;;;;;5084070;28;20054;-59
2022/05/12 10:20:47;;;;;;;4.55;1.33;;;21.40;96.90;;;;;;5078395;28;20102;-58
2022/05/12 10:23:25;;;;;;;4.72;1.20;;;21.40;96.80;;;;;;5079344;28;20039;-53
2022/05/12 10:26:23;;;;;;;5.45;1.42;;;21.50;94.70;;;;;;5065115;28;20642;-53
2022/05/12 10:29:05;;;;;;;6.82;2.13;;;21.80;89.40;;;;;;5078857;28;20146;-51
2022/05/12 10:31:50;;;;;;;6.75;2.08;;;21.80;93.20;;;;;;5066063;28;20476;-54
2022/05/12 10:34:38;;;;;;;4.57;1.02;;;22.30;90.90;;;;;;5077452;28;20098;-51
2022/05/12 10:37:33;;;;;;;4.88;1.33;;;22.50;90.10;;;;;;5090727;28;20931;-53
2022/05/12 10:40:26;;;;;;;5.03;1.60;;;22.80;74.60;;;;;;5089859;28;20063;-52
2022/05/12 10:42:59;;;;;;;5.85;1.73;;;22.70;86.30;;;;;;5095001;28;20424;-54
2022/05/12 10:45:49;;;;;;;5.13;1.33;;;23.20;87.20;;;;;;5078975;28;20050;-51
2022/05/12 10:48:53;;;;;;;4.95;1.25;;;23.10;72.20;;;;;;5081276;28;20244;-56
2022/05/12 10:51:22;;;;;;;6.25;1.60;;;22.80;65.20;;;;;;5080367;27;20614;-55
2022/05/12 10:54:26;;;;;;;4.55;1.48;;;23.10;70.30;;;;;;5069160;28;20059;-56
2022/05/12 10:57:06;;;;;;;4.72;1.23;;;22.80;65.10;;;;;;5078359;28;20056;-56
2022/05/12 10:59:41;;;;;;;4.50;1.50;;;23.00;70.40;;;;;;5100304;28;20048;-56
2022/05/12 11:02:19;;;;;;;4.80;1.33;;;23.30;83.20;;;;;;5085010;28;20046;-56
2022/05/12 11:04:53;;;;;;;4.55;1.60;;;23.90;81.10;;;;;;5099545;28;20083;-62
2022/05/12 11:07:28;;;;;;;4.60;1.55;;;23.10;65.60;;;;;;5078595;28;20051;-61
2022/05/12 11:10:11;;;;;;;4.38;1.15;;;22.80;71.00;;;;;;5089527;28;20040;-58
2022/05/12 11:12:45;;;;;;;7.13;1.27;;;22.70;65.20;;;;;;5077484;28;20391;-58
2022/05/12 11:15:14;;;;;;;6.25;1.23;;;23.10;74.90;;;;;;5080484;28;20039;-58
2022/05/12 11:18:00;;;;;;;7.18;1.17;;;22.80;57.60;;;;;;5076086;28;20159;-58
2022/05/12 11:20:33;;;;;;;8.63;1.10;;;23.00;66.90;;;;;;5087213;28;20188;-58
2022/05/12 11:23:14;;;;;;;3.80;1.08;;;23.10;53.80;;;;;;5061688;28;20056;-58
2022/05/12 11:26:04;;;;;;;4.22;1.17;;;23.00;55.30;;;;;;5075293;28;20135;-58
2022/05/12 11:31:32;;;;;;;6.20;1.20;;;23.20;55.00;;;;;;5079702;28;20142;-58
2022/05/12 11:34:08;;;;;;;4.03;1.40;;;23.10;50.60;;;;;;5071621;28;20093;-58
2022/05/12 11:36:40;;;;;;;4.70;1.25;;;23.20;49.70;;;;;;5084672;28;20048;-58
2022/05/12 11:39:38;;;;;;;4.22;1.08;;;23.20;51.70;;;;;;5066315;28;20072;-58
2022/05/12 11:42:20;;;;;;;3.83;1.00;;;23.00;51.00;;;;;;5054658;28;20044;-57
2022/05/12 11:44:55;;;;;;;4.85;1.17;;;22.40;53.00;;;;;;5062526;28;20064;-61
2022/05/12 11:47:46;;;;;;;3.40;1.30;;;23.20;54.70;;;;;;5071135;28;20107;-57
2022/05/12 11:50:38;;;;;;;3.22;0.90;;;22.50;54.30;;;;;;5079249;28;20123;-57
2022/05/12 11:53:24;;;;;;;4.88;1.15;;;22.50;55.40;;;;;;5062494;28;20484;-49
2022/05/12 11:56:01;;;;;;;5.38;1.10;;;23.00;54.60;;;;;;5064536;28;20055;-57
2022/05/12 11:58:43;;;;;;;5.55;1.45;;;23.40;60.30;;;;;;5078970;28;20755;-57
2022/05/12 12:01:39;;;;;;;3.72;0.80;;;24.10;54.20;;;;;;5080248;28;20497;-58
2022/05/12 12:04:05;;;;;;;5.72;1.17;;;23.80;49.90;;;;;;5083433;28;20052;-49
2022/05/12 12:06:52;;;;;;;3.35;0.90;;;23.90;48.20;;;;;;5083417;28;20110;-52
2022/05/12 12:09:30;;;;;;;3.55;1.00;;;23.40;47.90;;;;;;5080052;28;20056;-51
2022/05/12 12:11:56;;;;;;;5.40;1.05;;;23.20;47.80;;;;;;5082990;28;20098;-58
2022/05/12 12:14:48;;;;;;;4.38;1.05;;;23.40;46.70;;;;;;5083227;28;20059;-57
2022/05/12 12:17:35;;;;;;;6.47;1.35;;;23.10;46.20;;;;;;5063096;28;20085;-50
2022/05/12 12:20:21;;;;;;;3.70;1.00;;;23.20;45.30;;;;;;5064235;28;20048;-48
2022/05/12 12:22:51;;;;;;;4.57;1.27;;;23.20;46.40;;;;;;5061860;28;20135;-57
2022/05/12 12:25:26;;;;;;;4.45;1.20;;;22.40;47.30;;;;;;5070959;28;20051;-57
2022/05/12 12:27:52;;;;;;;5.80;1.10;;;22.10;49.80;;;;;;5081111;28;20075;-57
2022/05/12 12:30:30;;;;;;;3.92;0.88;;;22.10;48.30;;;;;;5083600;28;20606;-57
2022/05/12 12:33:24;;;;;;;4.63;0.88;;;21.90;47.90;;;;;;5061287;28;20052;-58
2022/05/12 12:36:00;;;;;;;4.47;1.00;;;22.70;49.50;;;;;;5063057;28;20052;-48
2022/05/12 12:38:45;;;;;;;3.08;0.95;;;23.50;48.40;;;;;;5062728;28;20114;-57
2022/05/12 12:41:15;;;;;;;5.50;1.17;;;23.70;45.50;;;;;;5069552;28;20117;-54
2022/05/12 12:43:47;;;;;;;5.20;1.00;;;23.90;45.70;;;;;;5081918;28;20507;-57
2022/05/12 12:46:20;;;;;;;3.85;1.05;;;22.80;45.40;;;;;;5068937;28;20897;-57
2022/05/12 12:48:54;;;;;;;3.28;1.20;;;22.30;47.70;;;;;;5063264;28;20060;-52
2022/05/12 12:51:29;;;;;;;7.90;1.55;;;22.80;49.50;;;;;;5069767;28;20052;-50
2022/05/12 12:56:42;;;;;;;2.60;0.82;;;23.30;47.80;;;;;;5086415;28;20066;-48
2022/05/12 12:59:26;;;;;;;5.65;1.13;;;23.10;45.00;;;;;;5086360;28;20050;-48
2022/05/12 13:01:57;;;;;;;4.15;1.25;;;23.40;47.10;;;;;;5083003;28;20050;-52
2022/05/12 13:04:25;;;;;;;4.85;1.17;;;22.90;44.90;;;;;;5066050;28;20048;-52
2022/05/12 13:07:03;;;;;;;5.18;1.20;;;23.60;47.00;;;;;;5051288;28;20045;-48
2022/05/12 13:09:37;;;;;;;3.35;0.95;;;23.60;43.30;;;;;;5067100;28;20052;-51
2022/05/12 13:12:18;;;;;;;5.32;1.20;;;23.40;42.20;;;;;;5067574;28;20037;-51
2022/05/12 13:14:47;;;;;;;4.25;1.10;;;23.30;42.30;;;;;;5067264;28;20049;-50
2022/05/12 13:17:41;;;;;;;4.30;1.20;;;23.10;40.70;;;;;;5084030;28;20050;-51
2022/05/12 13:20:14;;;;;;;4.50;0.70;;;22.80;40.90;;;;;;5066022;28;20036;-51
2022/05/12 13:22:54;;;;;;;3.53;0.93;;;23.10;40.70;;;;;;5099702;27;20502;-53
2022/05/12 13:25:27;;;;;;;8.63;4.72;;;23.60;41.70;;;;;;5085695;28;20495;-54
2022/05/12 13:27:54;;;;;;;4.65;1.65;;;23.40;41.70;;;;;;5076830;28;20090;-54
2022/05/12 13:30:34;;;;;;;8.05;6.00;;;24.00;42.50;;;;;;5087177;28;20801;-53
2022/05/12 13:33:10;;;;;;;4.43;1.83;;;24.70;40.40;;;;;;5091328;28;20489;-54
2022/05/12 13:35:36;;;;;;;4.82;1.88;;;25.30;40.70;;;;;;5076155;28;20048;-54
2022/05/12 13:38:04;;;;;;;6.10;2.97;;;24.90;40.40;;;;;;5095066;28;20144;-53